sensor_id;sensor_type;location;lat;lon;timestamp;pressure;altitude;pressure_sealevel;temperature;humidity
13367;BME280;6752;52.612;13.630;2023-02-20T00:04:43;101496.88;;;2.70;100.00
13367;BME280;6752;52.612;13.630;2023-02-20T00:09:45;101475.95;;;2.64;100.00
13367;BME280;6752;52.612;13.630;2023-02-20T00:14:47;101470.87;;;2.61;100.00
13367;BME280;6752;52.612;13.630;2023-02-20T00:19:49;101466.18;;;2.63;100.00
13367;BME280;6752;52.612;13.630;2023-02-20T00:24:52;101456.41;;;2.62;100.00
13367;BME280;6752;52.612;13.630;2023-02-20T00:29:54;101439.84;;;2.61;100.00
13367;BME280;6752;52.612;13.630;2023-02-20T00:34:57;101440.27;;;2.57;100.00
13367;BME280;6752;52.612;13.630;2023-02-20T00:39:59;101442.57;;;2.66;100.00
13367;BME280;6752;52.612;13.630;2023-02-20T00:45:01;101439.06;;;2.60;100.00
13367;BME280;6752;52.612;13.630;2023-02-20T00:50:04;101432.46;;;2.59;100.00
13367;BME280;6752;52.612;13.630;2023-02-20T00:55:06;101426.38;;;2.57;100.00
13367;BME280;6752;52.612;13.630;2023-02-20T01:00:09;101410.81;;;2.55;100.00
13367;BME280;6752;52.612;13.630;2023-02-20T01:05:11;101418.16;;;2.58;100.00
13367;BME280;6752;52.612;13.630;2023-02-20T01:10:13;101409.81;;;2.56;100.00
13367;BME280;6752;52.612;13.630;2023-02-20T01:15:15;101396.55;;;2.59;100.00
13367;BME280;6752;52.612;13.630;2023-02-20T01:20:18;101394.92;;;2.71;100.00
13367;BME280;6752;52.612;13.630;2023-02-20T01:25:20;101394.34;;;2.86;100.00
13367;BME280;6752;52.612;13.630;2023-02-20T01:30:22;101370.55;;;2.99;100.00
13367;BME280;6752;52.612;13.630;2023-02-20T01:35:24;101370.16;;;3.12;100.00
13367;BME280;6752;52.612;13.630;2023-02-20T01:40:27;101363.45;;;3.16;100.00
13367;BME280;6752;52.612;13.630;2023-02-20T01:45:35;101360.73;;;3.25;100.00
13367;BME280;6752;52.612;13.630;2023-02-20T01:50:36;101328.64;;;3.22;100.00
13367;BME280;6752;52.612;13.630;2023-02-20T01:55:46;101304.90;;;3.22;100.00
13367;BME280;6752;52.612;13.630;2023-02-20T02:00:44;101305.84;;;3.35;100.00
13367;BME280;6752;52.612;13.630;2023-02-20T02:05:47;101297.66;;;3.31;100.00
13367;BME280;6752;52.612;13.630;2023-02-20T02:10:53;101300.40;;;3.31;100.00
13367;BME280;6752;52.612;13.630;2023-02-20T02:16:05;101292.53;;;3.33;100.00
13367;BME280;6752;52.612;13.630;2023-02-20T02:31:48;101287.22;;;3.32;100.00
13367;BME280;6752;52.612;13.630;2023-02-20T02:36:56;101276.97;;;3.10;100.00
13367;BME280;6752;52.612;13.630;2023-02-20T02:47:27;101263.94;;;3.14;100.00
13367;BME280;6752;52.612;13.630;2023-02-20T02:52:27;101255.17;;;3.12;100.00
13367;BME280;6752;52.612;13.630;2023-02-20T02:57:48;101243.27;;;3.23;100.00
13367;BME280;6752;52.612;13.630;2023-02-20T03:02:56;101225.88;;;3.43;100.00
13367;BME280;6752;52.612;13.630;2023-02-20T03:07:55;101223.52;;;3.61;100.00
13367;BME280;6752;52.612;13.630;2023-02-20T03:12:58;101213.58;;;3.83;100.00
13367;BME280;6752;52.612;13.630;2023-02-20T03:18:23;101206.34;;;3.96;100.00
13367;BME280;6752;52.612;13.630;2023-02-20T03:23:25;101203.95;;;4.10;100.00
13367;BME280;6752;52.612;13.630;2023-02-20T03:28:30;101192.81;;;4.17;100.00
13367;BME280;6752;52.612;13.630;2023-02-20T03:33:44;101182.61;;;4.24;100.00
13367;BME280;6752;52.612;13.630;2023-02-20T03:39:05;101171.51;;;4.31;100.00
13367;BME280;6752;52.612;13.630;2023-02-20T03:44:24;101150.67;;;4.36;100.00
13367;BME280;6752;52.612;13.630;2023-02-20T03:49:27;101158.86;;;4.52;100.00
13367;BME280;6752;52.612;13.630;2023-02-20T03:54:29;101176.14;;;4.58;100.00
13367;BME280;6752;52.612;13.630;2023-02-20T03:59:44;101185.23;;;4.65;100.00
13367;BME280;6752;52.612;13.630;2023-02-20T04:04:47;101176.37;;;4.68;100.00
13367;BME280;6752;52.612;13.630;2023-02-20T04:09:47;101166.52;;;4.76;100.00
13367;BME280;6752;52.612;13.630;2023-02-20T04:14:50;101157.97;;;4.80;100.00
13367;BME280;6752;52.612;13.630;2023-02-20T04:19:52;101143.02;;;4.84;100.00
13367;BME280;6752;52.612;13.630;2023-02-20T04:24:59;101140.12;;;4.90;100.00
13367;BME280;6752;52.612;13.630;2023-02-20T04:30:00;101124.17;;;4.92;100.00
13367;BME280;6752;52.612;13.630;2023-02-20T04:35:02;101118.75;;;4.96;100.00
13367;BME280;6752;52.612;13.630;2023-02-20T04:40:05;101116.91;;;5.00;100.00
13367;BME280;6752;52.612;13.630;2023-02-20T04:45:07;101109.56;;;4.98;100.00
13367;BME280;6752;52.612;13.630;2023-02-20T04:50:13;101093.01;;;5.01;100.00
13367;BME280;6752;52.612;13.630;2023-02-20T04:55:12;101096.86;;;5.06;100.00
13367;BME280;6752;52.612;13.630;2023-02-20T05:00:15;101085.61;;;5.10;100.00
13367;BME280;6752;52.612;13.630;2023-02-20T05:05:18;101063.55;;;5.14;100.00
13367;BME280;6752;52.612;13.630;2023-02-20T05:10:20;101052.80;;;5.17;100.00
13367;BME280;6752;52.612;13.630;2023-02-20T05:15:21;101050.63;;;5.21;100.00
13367;BME280;6752;52.612;13.630;2023-02-20T05:20:24;101042.99;;;5.24;100.00
13367;BME280;6752;52.612;13.630;2023-02-20T05:25:26;101045.03;;;5.22;100.00
13367;BME280;6752;52.612;13.630;2023-02-20T05:30:29;101038.79;;;5.22;100.00
13367;BME280;6752;52.612;13.630;2023-02-20T05:35:31;101042.73;;;5.27;100.00
13367;BME280;6752;52.612;13.630;2023-02-20T05:40:33;101040.47;;;5.23;100.00
13367;BME280;6752;52.612;13.630;2023-02-20T05:45:36;101026.59;;;5.26;100.00
13367;BME280;6752;52.612;13.630;2023-02-20T05:50:38;101024.05;;;5.28;100.00
13367;BME280;6752;52.612;13.630;2023-02-20T05:55:41;101014.59;;;5.28;100.00
13367;BME280;6752;52.612;13.630;2023-02-20T06:00:43;101007.41;;;5.28;100.00
13367;BME280;6752;52.612;13.630;2023-02-20T06:05:45;100990.08;;;5.30;100.00
13367;BME280;6752;52.612;13.630;2023-02-20T06:10:48;100980.23;;;5.26;100.00
13367;BME280;6752;52.612;13.630;2023-02-20T06:15:50;100977.02;;;5.26;100.00
13367;BME280;6752;52.612;13.630;2023-02-20T06:20:52;100965.00;;;5.29;100.00
13367;BME280;6752;52.612;13.630;2023-02-20T06:25:55;100953.14;;;5.34;100.00
13367;BME280;6752;52.612;13.630;2023-02-20T06:30:57;100968.52;;;5.33;100.00
13367;BME280;6752;52.612;13.630;2023-02-20T06:36:00;100952.73;;;5.45;100.00
13367;BME280;6752;52.612;13.630;2023-02-20T06:41:02;100952.27;;;5.49;100.00
13367;BME280;6752;52.612;13.630;2023-02-20T06:46:04;100933.35;;;5.49;100.00
13367;BME280;6752;52.612;13.630;2023-02-20T06:51:07;100948.93;;;5.54;100.00
13367;BME280;6752;52.612;13.630;2023-02-20T06:56:09;100933.60;;;5.58;100.00
13367;BME280;6752;52.612;13.630;2023-02-20T07:01:14;100945.26;;;5.58;100.00
13367;BME280;6752;52.612;13.630;2023-02-20T07:06:16;100928.72;;;5.65;100.00
13367;BME280;6752;52.612;13.630;2023-02-20T07:11:19;100905.13;;;5.66;100.00
13367;BME280;6752;52.612;13.630;2023-02-20T07:16:21;100909.13;;;5.74;100.00
13367;BME280;6752;52.612;13.630;2023-02-20T07:21:23;100905.20;;;5.84;100.00
13367;BME280;6752;52.612;13.630;2023-02-20T07:26:27;100902.59;;;5.83;100.00
13367;BME280;6752;52.612;13.630;2023-02-20T07:31:28;100904.80;;;5.95;100.00
13367;BME280;6752;52.612;13.630;2023-02-20T07:36:31;100925.75;;;6.05;100.00
13367;BME280;6752;52.612;13.630;2023-02-20T07:41:33;100882.45;;;6.05;100.00
13367;BME280;6752;52.612;13.630;2023-02-20T07:46:38;100873.11;;;6.14;100.00
13367;BME280;6752;52.612;13.630;2023-02-20T07:51:40;100870.94;;;6.21;100.00
13367;BME280;6752;52.612;13.630;2023-02-20T07:56:43;100877.55;;;6.26;100.00
13367;BME280;6752;52.612;13.630;2023-02-20T08:01:45;100853.20;;;6.37;100.00
13367;BME280;6752;52.612;13.630;2023-02-20T08:06:47;100842.67;;;6.42;100.00
13367;BME280;6752;52.612;13.630;2023-02-20T08:11:49;100843.58;;;6.49;100.00
13367;BME280;6752;52.612;13.630;2023-02-20T08:16:51;100814.41;;;6.59;100.00
13367;BME280;6752;52.612;13.630;2023-02-20T08:21:54;100794.42;;;6.67;100.00
13367;BME280;6752;52.612;13.630;2023-02-20T08:26:56;100796.70;;;6.77;100.00
13367;BME280;6752;52.612;13.630;2023-02-20T08:31:58;100775.08;;;6.84;100.00
13367;BME280;6752;52.612;13.630;2023-02-20T08:37:01;100771.94;;;6.91;100.00
13367;BME280;6752;52.612;13.630;2023-02-20T08:42:03;100762.48;;;6.94;100.00
13367;BME280;6752;52.612;13.630;2023-02-20T08:47:05;100744.63;;;7.06;100.00
13367;BME280;6752;52.612;13.630;2023-02-20T08:52:08;100739.69;;;7.10;100.00
13367;BME280;6752;52.612;13.630;2023-02-20T08:57:10;100739.65;;;7.21;100.00
13367;BME280;6752;52.612;13.630;2023-02-20T09:02:17;100711.72;;;7.23;100.00
13367;BME280;6752;52.612;13.630;2023-02-20T09:07:18;100696.80;;;7.34;100.00
13367;BME280;6752;52.612;13.630;2023-02-20T09:12:20;100686.94;;;7.47;100.00
13367;BME280;6752;52.612;13.630;2023-02-20T09:17:23;100665.69;;;7.54;100.00
13367;BME280;6752;52.612;13.630;2023-02-20T09:22:25;100646.87;;;7.63;100.00
13367;BME280;6752;52.612;13.630;2023-02-20T09:27:27;100624.98;;;7.75;100.00
13367;BME280;6752;52.612;13.630;2023-02-20T09:32:30;100615.34;;;7.93;100.00
13367;BME280;6752;52.612;13.630;2023-02-20T09:37:32;100630.58;;;8.00;100.00
13367;BME280;6752;52.612;13.630;2023-02-20T09:42:38;100617.78;;;8.08;100.00
13367;BME280;6752;52.612;13.630;2023-02-20T09:52:50;100617.53;;;8.34;100.00
13367;BME280;6752;52.612;13.630;2023-02-20T09:57:51;100607.91;;;8.48;100.00
13367;BME280;6752;52.612;13.630;2023-02-20T10:03:09;100608.85;;;8.51;100.00
13367;BME280;6752;52.612;13.630;2023-02-20T10:08:10;100608.65;;;8.42;100.00
13367;BME280;6752;52.612;13.630;2023-02-20T10:13:37;100588.17;;;8.46;100.00
13367;BME280;6752;52.612;13.630;2023-02-20T10:24:15;100575.73;;;8.51;100.00
13367;BME280;6752;52.612;13.630;2023-02-20T10:29:15;100574.39;;;8.58;100.00
13367;BME280;6752;52.612;13.630;2023-02-20T10:34:22;100566.63;;;8.68;100.00
13367;BME280;6752;52.612;13.630;2023-02-20T10:39:24;100555.41;;;8.90;100.00
13367;BME280;6752;52.612;13.630;2023-02-20T10:44:27;100558.63;;;9.03;100.00
13367;BME280;6752;52.612;13.630;2023-02-20T10:49:41;100549.30;;;9.08;100.00
13367;BME280;6752;52.612;13.630;2023-02-20T10:54:42;100537.27;;;9.35;100.00
13367;BME280;6752;52.612;13.630;2023-02-20T10:59:53;100529.52;;;9.58;100.00
13367;BME280;6752;52.612;13.630;2023-02-20T11:04:59;100507.38;;;9.70;100.00
13367;BME280;6752;52.612;13.630;2023-02-20T11:09:59;100507.30;;;9.96;100.00
13367;BME280;6752;52.612;13.630;2023-02-20T11:15:07;100538.01;;;9.75;100.00
13367;BME280;6752;52.612;13.630;2023-02-20T11:25:35;100553.92;;;9.55;100.00
13367;BME280;6752;52.612;13.630;2023-02-20T11:30:40;100551.72;;;9.55;100.00
13367;BME280;6752;52.612;13.630;2023-02-20T11:35:44;100541.25;;;9.55;100.00
13367;BME280;6752;52.612;13.630;2023-02-20T11:46:08;100523.72;;;9.63;100.00
13367;BME280;6752;52.612;13.630;2023-02-20T11:51:09;100518.70;;;9.64;100.00
13367;BME280;6752;52.612;13.630;2023-02-20T11:56:16;100518.25;;;9.67;100.00
13367;BME280;6752;52.612;13.630;2023-02-20T12:01:30;100515.08;;;9.57;100.00
13367;BME280;6752;52.612;13.630;2023-02-20T12:11:38;100533.55;;;9.64;100.00
13367;BME280;6752;52.612;13.630;2023-02-20T12:17:09;100529.66;;;9.66;100.00
13367;BME280;6752;52.612;13.630;2023-02-20T12:22:14;100511.87;;;9.70;100.00
13367;BME280;6752;52.612;13.630;2023-02-20T12:33:04;100508.50;;;9.56;100.00
13367;BME280;6752;52.612;13.630;2023-02-20T12:38:24;100492.56;;;9.59;100.00
13367;BME280;6752;52.612;13.630;2023-02-20T12:59:33;100497.75;;;9.64;100.00
13367;BME280;6752;52.612;13.630;2023-02-20T13:04:40;100496.81;;;9.64;100.00
13367;BME280;6752;52.612;13.630;2023-02-20T13:09:39;100482.14;;;9.53;100.00
13367;BME280;6752;52.612;13.630;2023-02-20T13:14:47;100482.59;;;9.50;100.00
13367;BME280;6752;52.612;13.630;2023-02-20T13:24:51;100487.84;;;9.42;100.00
13367;BME280;6752;52.612;13.630;2023-02-20T13:29:59;100482.16;;;9.31;100.00
13367;BME280;6752;52.612;13.630;2023-02-20T13:40:35;100501.41;;;9.07;100.00
13367;BME280;6752;52.612;13.630;2023-02-20T13:45:43;100498.73;;;9.00;100.00
13367;BME280;6752;52.612;13.630;2023-02-20T13:50:44;100507.61;;;8.95;100.00
13367;BME280;6752;52.612;13.630;2023-02-20T13:55:47;100512.88;;;8.86;100.00
13367;BME280;6752;52.612;13.630;2023-02-20T14:00:53;100519.91;;;8.78;100.00
13367;BME280;6752;52.612;13.630;2023-02-20T14:06:05;100521.57;;;8.73;100.00
13367;BME280;6752;52.612;13.630;2023-02-20T14:11:23;100530.89;;;8.78;100.00
13367;BME280;6752;52.612;13.630;2023-02-20T14:16:30;100522.42;;;8.76;100.00
13367;BME280;6752;52.612;13.630;2023-02-20T14:21:32;100516.86;;;8.84;100.00
13367;BME280;6752;52.612;13.630;2023-02-20T14:26:34;100519.36;;;8.85;100.00
13367;BME280;6752;52.612;13.630;2023-02-20T14:31:36;100515.78;;;8.91;100.00
13367;BME280;6752;52.612;13.630;2023-02-20T14:37:00;100523.09;;;8.94;100.00
13367;BME280;6752;52.612;13.630;2023-02-20T14:42:00;100513.69;;;8.90;100.00
13367;BME280;6752;52.612;13.630;2023-02-20T14:47:06;100506.76;;;8.98;100.00
13367;BME280;6752;52.612;13.630;2023-02-20T14:57:13;100496.38;;;9.10;100.00
13367;BME280;6752;52.612;13.630;2023-02-20T15:02:21;100505.84;;;9.20;100.00
13367;BME280;6752;52.612;13.630;2023-02-20T15:07:23;100495.20;;;9.15;100.00
13367;BME280;6752;52.612;13.630;2023-02-20T15:12:31;100495.59;;;9.19;100.00
13367;BME280;6752;52.612;13.630;2023-02-20T15:17:31;100492.55;;;9.21;100.00
13367;BME280;6752;52.612;13.630;2023-02-20T15:22:33;100495.68;;;9.21;100.00
13367;BME280;6752;52.612;13.630;2023-02-20T15:27:35;100476.96;;;9.26;100.00
13367;BME280;6752;52.612;13.630;2023-02-20T15:32:39;100490.98;;;9.26;100.00
13367;BME280;6752;52.612;13.630;2023-02-20T15:37:40;100479.77;;;9.28;100.00
13367;BME280;6752;52.612;13.630;2023-02-20T15:42:42;100478.78;;;9.35;100.00
13367;BME280;6752;52.612;13.630;2023-02-20T15:47:45;100472.48;;;9.38;100.00
13367;BME280;6752;52.612;13.630;2023-02-20T15:52:47;100465.31;;;9.31;100.00
13367;BME280;6752;52.612;13.630;2023-02-20T15:57:50;100479.20;;;9.35;100.00
13367;BME280;6752;52.612;13.630;2023-02-20T16:02:52;100482.75;;;9.36;100.00
13367;BME280;6752;52.612;13.630;2023-02-20T16:07:54;100480.58;;;9.32;100.00
13367;BME280;6752;52.612;13.630;2023-02-20T16:12:57;100490.66;;;9.22;100.00
13367;BME280;6752;52.612;13.630;2023-02-20T16:17:59;100483.66;;;9.20;100.00
13367;BME280;6752;52.612;13.630;2023-02-20T16:23:01;100477.28;;;9.20;100.00
13367;BME280;6752;52.612;13.630;2023-02-20T16:28:04;100491.84;;;9.17;100.00
13367;BME280;6752;52.612;13.630;2023-02-20T16:33:21;100485.80;;;9.11;100.00
13367;BME280;6752;52.612;13.630;2023-02-20T16:38:23;100489.88;;;9.11;100.00
13367;BME280;6752;52.612;13.630;2023-02-20T16:43:26;100478.21;;;9.04;100.00
13367;BME280;6752;52.612;13.630;2023-02-20T16:48:28;100487.20;;;8.98;100.00
13367;BME280;6752;52.612;13.630;2023-02-20T16:53:31;100487.77;;;8.91;100.00
13367;BME280;6752;52.612;13.630;2023-02-20T16:58:33;100500.44;;;8.85;100.00
13367;BME280;6752;52.612;13.630;2023-02-20T17:03:35;100518.04;;;8.75;100.00
13367;BME280;6752;52.612;13.630;2023-02-20T17:08:37;100524.49;;;8.74;100.00
13367;BME280;6752;52.612;13.630;2023-02-20T17:13:39;100518.24;;;8.67;100.00
13367;BME280;6752;52.612;13.630;2023-02-20T17:18:41;100525.45;;;8.68;100.00
13367;BME280;6752;52.612;13.630;2023-02-20T17:23:43;100524.73;;;8.63;100.00
13367;BME280;6752;52.612;13.630;2023-02-20T17:28:46;100533.84;;;8.59;100.00
13367;BME280;6752;52.612;13.630;2023-02-20T17:33:48;100531.14;;;8.53;100.00
13367;BME280;6752;52.612;13.630;2023-02-20T17:38:50;100549.62;;;8.47;100.00
13367;BME280;6752;52.612;13.630;2023-02-20T17:43:53;100548.56;;;8.51;100.00
13367;BME280;6752;52.612;13.630;2023-02-20T17:48:55;100551.39;;;8.47;100.00
13367;BME280;6752;52.612;13.630;2023-02-20T17:53:57;100550.97;;;8.50;100.00
13367;BME280;6752;52.612;13.630;2023-02-20T17:58:59;100540.32;;;8.45;100.00
13367;BME280;6752;52.612;13.630;2023-02-20T18:04:02;100538.76;;;8.43;100.00
13367;BME280;6752;52.612;13.630;2023-02-20T18:09:04;100533.44;;;8.39;100.00
13367;BME280;6752;52.612;13.630;2023-02-20T18:14:06;100534.06;;;8.41;100.00
13367;BME280;6752;52.612;13.630;2023-02-20T18:19:09;100547.44;;;8.40;100.00
13367;BME280;6752;52.612;13.630;2023-02-20T18:24:11;100540.33;;;8.42;100.00
13367;BME280;6752;52.612;13.630;2023-02-20T18:29:13;100542.42;;;8.40;100.00
13367;BME280;6752;52.612;13.630;2023-02-20T18:34:16;100532.91;;;8.43;100.00
13367;BME280;6752;52.612;13.630;2023-02-20T18:39:18;100528.52;;;8.42;100.00
13367;BME280;6752;52.612;13.630;2023-02-20T18:44:21;100538.34;;;8.40;100.00
13367;BME280;6752;52.612;13.630;2023-02-20T18:49:23;100544.30;;;8.39;100.00
13367;BME280;6752;52.612;13.630;2023-02-20T18:54:25;100535.64;;;8.37;100.00
13367;BME280;6752;52.612;13.630;2023-02-20T18:59:27;100540.86;;;8.38;100.00
13367;BME280;6752;52.612;13.630;2023-02-20T19:04:30;100533.42;;;8.46;100.00
13367;BME280;6752;52.612;13.630;2023-02-20T19:09:32;100515.24;;;8.46;100.00
13367;BME280;6752;52.612;13.630;2023-02-20T19:14:34;100514.83;;;8.46;100.00
13367;BME280;6752;52.612;13.630;2023-02-20T19:19:37;100512.44;;;8.41;100.00
13367;BME280;6752;52.612;13.630;2023-02-20T19:24:39;100500.22;;;8.41;100.00
13367;BME280;6752;52.612;13.630;2023-02-20T19:29:41;100516.71;;;8.46;100.00
13367;BME280;6752;52.612;13.630;2023-02-20T19:34:45;100494.89;;;8.43;100.00
13367;BME280;6752;52.612;13.630;2023-02-20T19:39:47;100525.06;;;8.48;100.00
13367;BME280;6752;52.612;13.630;2023-02-20T19:44:50;100511.37;;;8.48;100.00
13367;BME280;6752;52.612;13.630;2023-02-20T19:49:52;100515.66;;;8.50;100.00
13367;BME280;6752;52.612;13.630;2023-02-20T19:54:54;100516.48;;;8.51;100.00
13367;BME280;6752;52.612;13.630;2023-02-20T19:59:57;100511.48;;;8.48;100.00
13367;BME280;6752;52.612;13.630;2023-02-20T20:05:00;100512.95;;;8.57;100.00
13367;BME280;6752;52.612;13.630;2023-02-20T20:10:03;100515.56;;;8.57;100.00
13367;BME280;6752;52.612;13.630;2023-02-20T20:15:05;100514.20;;;8.57;100.00
13367;BME280;6752;52.612;13.630;2023-02-20T20:20:07;100508.12;;;8.65;100.00
13367;BME280;6752;52.612;13.630;2023-02-20T20:25:10;100505.37;;;8.72;100.00
13367;BME280;6752;52.612;13.630;2023-02-20T20:30:18;100498.17;;;8.78;100.00
13367;BME280;6752;52.612;13.630;2023-02-20T20:35:14;100485.40;;;8.82;100.00
13367;BME280;6752;52.612;13.630;2023-02-20T20:40:17;100485.38;;;8.85;100.00
13367;BME280;6752;52.612;13.630;2023-02-20T20:45:20;100472.41;;;8.87;100.00
13367;BME280;6752;52.612;13.630;2023-02-20T20:50:22;100482.45;;;8.87;100.00
13367;BME280;6752;52.612;13.630;2023-02-20T20:55:24;100482.44;;;8.90;100.00
13367;BME280;6752;52.612;13.630;2023-02-20T21:00:28;100484.37;;;8.99;100.00
13367;BME280;6752;52.612;13.630;2023-02-20T21:05:29;100482.72;;;9.01;100.00
13367;BME280;6752;52.612;13.630;2023-02-20T21:10:31;100468.28;;;9.04;100.00
13367;BME280;6752;52.612;13.630;2023-02-20T21:15:33;100471.20;;;9.06;100.00
13367;BME280;6752;52.612;13.630;2023-02-20T21:20:36;100467.86;;;9.04;100.00
13367;BME280;6752;52.612;13.630;2023-02-20T21:25:38;100465.11;;;9.10;100.00
13367;BME280;6752;52.612;13.630;2023-02-20T21:30:40;100462.94;;;9.06;100.00
13367;BME280;6752;52.612;13.630;2023-02-20T21:35:43;100475.28;;;9.06;100.00
13367;BME280;6752;52.612;13.630;2023-02-20T21:40:45;100468.13;;;9.11;100.00
13367;BME280;6752;52.612;13.630;2023-02-20T21:45:47;100459.32;;;9.16;100.00
13367;BME280;6752;52.612;13.630;2023-02-20T21:50:50;100465.92;;;9.14;100.00
13367;BME280;6752;52.612;13.630;2023-02-20T21:55:52;100460.05;;;9.17;100.00
13367;BME280;6752;52.612;13.630;2023-02-20T22:00:55;100451.34;;;9.21;100.00
13367;BME280;6752;52.612;13.630;2023-02-20T22:05:56;100460.13;;;9.20;100.00
13367;BME280;6752;52.612;13.630;2023-02-20T22:10:58;100452.59;;;9.25;100.00
13367;BME280;6752;52.612;13.630;2023-02-20T22:16:18;100459.61;;;9.20;100.00
13367;BME280;6752;52.612;13.630;2023-02-20T22:21:38;100460.02;;;9.20;100.00
13367;BME280;6752;52.612;13.630;2023-02-20T22:26:58;100460.27;;;9.16;100.00
13367;BME280;6752;52.612;13.630;2023-02-20T22:32:19;100471.70;;;9.08;100.00
13367;BME280;6752;52.612;13.630;2023-02-20T22:37:42;100493.55;;;9.11;100.00
13367;BME280;6752;52.612;13.630;2023-02-20T22:42:59;100493.56;;;9.08;100.00
13367;BME280;6752;52.612;13.630;2023-02-20T22:48:21;100510.08;;;9.10;100.00
13367;BME280;6752;52.612;13.630;2023-02-20T22:53:43;100508.73;;;9.06;100.00
13367;BME280;6752;52.612;13.630;2023-02-20T22:59:02;100511.34;;;9.07;100.00
13367;BME280;6752;52.612;13.630;2023-02-20T23:04:22;100514.19;;;8.96;100.00
13367;BME280;6752;52.612;13.630;2023-02-20T23:09:43;100516.38;;;9.03;100.00
13367;BME280;6752;52.612;13.630;2023-02-20T23:15:03;100518.88;;;8.98;100.00
13367;BME280;6752;52.612;13.630;2023-02-20T23:20:23;100521.08;;;8.99;100.00
13367;BME280;6752;52.612;13.630;2023-02-20T23:25:43;100519.10;;;9.03;100.00
13367;BME280;6752;52.612;13.630;2023-02-20T23:31:04;100520.98;;;9.03;100.00
13367;BME280;6752;52.612;13.630;2023-02-20T23:36:24;100518.14;;;9.07;100.00
13367;BME280;6752;52.612;13.630;2023-02-20T23:41:45;100518.91;;;9.02;100.00
13367;BME280;6752;52.612;13.630;2023-02-20T23:47:06;100515.88;;;9.01;100.00
13367;BME280;6752;52.612;13.630;2023-02-20T23:52:26;100514.41;;;8.95;100.00
13367;BME280;6752;52.612;13.630;2023-02-20T23:57:46;100505.92;;;8.97;100.00
